SBUG/URG METAR and TAF weather

Enter ICAO airport designator
Station Type Date Time Source
SBUG METAR 2018/12/13 20:00 UTC NOAA

SBUG 132000Z 36010KT CAVOK 34/23 Q1004


Station Type Date Time Source
SBUG Decoded METAR 2018/12/13 20:00 UTC NOAA

Uruguaiana Aeroporto , Brazil (SBUG) 29-47S 057-02W 74M
Dec 13, 2018 - 03:00 PM EST / 2018.12.13 2000 UTC
Wind: from the N (360 degrees) at 12 MPH (10 KT):0
Visibility: greater than 7 mile(s):0
Temperature: 93 F (34 C)
Heat index: 101.8 F (38.8 C):1
Dew Point: 73 F (23 C)
Relative Humidity: 52%
Pressure (altimeter): 29.65 in. Hg (1004 hPa)
ob: SBUG 132000Z 36010KT CAVOK 34/23 Q1004
cycle: 20

Station Type Date Time Source
SBUG TAF 2018/12/13 18:39 UTC NOAA

TAF SBUG 131500Z 1318/1406 04008KT CAVOK TX35/1319Z TN25/1406Z
RMK PD W


Example: see airport list